sensor_id;sensor_type;location;lat;lon;timestamp;P1;durP1;ratioP1;P2;durP2;ratioP2
14474;SDS011;7323;50.848;4.334;2023-05-15T00:02:05;75.50;;;50.57;;
14474;SDS011;7323;50.848;4.334;2023-05-15T00:04:31;70.50;;;48.77;;
14474;SDS011;7323;50.848;4.334;2023-05-15T00:06:57;75.80;;;53.00;;
14474;SDS011;7323;50.848;4.334;2023-05-15T00:09:23;71.03;;;51.10;;
14474;SDS011;7323;50.848;4.334;2023-05-15T00:11:48;72.37;;;49.00;;
14474;SDS011;7323;50.848;4.334;2023-05-15T00:14:15;76.13;;;51.40;;
14474;SDS011;7323;50.848;4.334;2023-05-15T00:16:40;68.37;;;50.50;;
14474;SDS011;7323;50.848;4.334;2023-05-15T00:19:06;75.90;;;53.37;;
14474;SDS011;7323;50.848;4.334;2023-05-15T00:21:32;77.80;;;54.97;;
14474;SDS011;7323;50.848;4.334;2023-05-15T00:23:58;76.47;;;52.87;;
14474;SDS011;7323;50.848;4.334;2023-05-15T00:26:23;79.20;;;53.53;;
14474;SDS011;7323;50.848;4.334;2023-05-15T00:28:50;75.27;;;52.07;;
14474;SDS011;7323;50.848;4.334;2023-05-15T00:31:16;73.07;;;50.80;;
14474;SDS011;7323;50.848;4.334;2023-05-15T00:33:43;86.33;;;56.63;;
14474;SDS011;7323;50.848;4.334;2023-05-15T00:36:11;75.10;;;51.43;;
14474;SDS011;7323;50.848;4.334;2023-05-15T00:38:43;66.53;;;47.77;;
14474;SDS011;7323;50.848;4.334;2023-05-15T00:41:11;66.33;;;49.37;;
14474;SDS011;7323;50.848;4.334;2023-05-15T00:43:38;66.77;;;47.77;;
14474;SDS011;7323;50.848;4.334;2023-05-15T00:46:07;59.53;;;44.23;;
14474;SDS011;7323;50.848;4.334;2023-05-15T00:48:35;67.07;;;47.57;;
14474;SDS011;7323;50.848;4.334;2023-05-15T00:51:01;64.00;;;46.67;;
14474;SDS011;7323;50.848;4.334;2023-05-15T00:53:27;66.17;;;46.90;;
14474;SDS011;7323;50.848;4.334;2023-05-15T00:55:56;66.73;;;46.63;;
14474;SDS011;7323;50.848;4.334;2023-05-15T00:58:23;64.30;;;45.70;;
14474;SDS011;7323;50.848;4.334;2023-05-15T01:00:52;60.13;;;44.43;;
14474;SDS011;7323;50.848;4.334;2023-05-15T01:03:18;65.60;;;45.77;;
14474;SDS011;7323;50.848;4.334;2023-05-15T01:05:44;67.57;;;46.63;;
14474;SDS011;7323;50.848;4.334;2023-05-15T01:08:22;62.53;;;45.43;;
14474;SDS011;7323;50.848;4.334;2023-05-15T01:11:13;63.73;;;45.17;;
14474;SDS011;7323;50.848;4.334;2023-05-15T01:13:40;63.50;;;45.80;;
14474;SDS011;7323;50.848;4.334;2023-05-15T01:16:06;58.13;;;43.57;;
14474;SDS011;7323;50.848;4.334;2023-05-15T01:18:34;59.53;;;44.70;;
14474;SDS011;7323;50.848;4.334;2023-05-15T01:21:05;60.83;;;46.23;;
14474;SDS011;7323;50.848;4.334;2023-05-15T01:29:11;64.00;;;46.70;;
14474;SDS011;7323;50.848;4.334;2023-05-15T01:31:45;62.70;;;45.20;;
14474;SDS011;7323;50.848;4.334;2023-05-15T01:34:16;66.37;;;47.60;;
14474;SDS011;7323;50.848;4.334;2023-05-15T01:36:47;62.20;;;44.10;;
14474;SDS011;7323;50.848;4.334;2023-05-15T01:39:18;59.13;;;45.60;;
14474;SDS011;7323;50.848;4.334;2023-05-15T01:44:29;64.50;;;45.90;;
14474;SDS011;7323;50.848;4.334;2023-05-15T01:46:58;59.00;;;44.37;;
14474;SDS011;7323;50.848;4.334;2023-05-15T01:49:25;60.27;;;44.33;;
14474;SDS011;7323;50.848;4.334;2023-05-15T01:51:55;61.90;;;45.27;;
14474;SDS011;7323;50.848;4.334;2023-05-15T01:54:37;66.70;;;47.40;;
14474;SDS011;7323;50.848;4.334;2023-05-15T01:57:04;63.90;;;46.33;;
14474;SDS011;7323;50.848;4.334;2023-05-15T01:59:31;63.80;;;46.90;;
14474;SDS011;7323;50.848;4.334;2023-05-15T02:01:58;67.50;;;48.10;;
14474;SDS011;7323;50.848;4.334;2023-05-15T02:04:25;66.20;;;48.13;;
14474;SDS011;7323;50.848;4.334;2023-05-15T02:06:53;64.33;;;47.67;;
14474;SDS011;7323;50.848;4.334;2023-05-15T02:09:20;62.30;;;47.47;;
14474;SDS011;7323;50.848;4.334;2023-05-15T02:11:47;61.67;;;46.10;;
14474;SDS011;7323;50.848;4.334;2023-05-15T02:14:14;63.17;;;47.00;;
14474;SDS011;7323;50.848;4.334;2023-05-15T02:16:42;61.23;;;46.53;;
14474;SDS011;7323;50.848;4.334;2023-05-15T02:19:08;59.23;;;45.37;;
14474;SDS011;7323;50.848;4.334;2023-05-15T02:21:33;59.37;;;45.27;;
14474;SDS011;7323;50.848;4.334;2023-05-15T02:23:59;61.47;;;47.50;;
14474;SDS011;7323;50.848;4.334;2023-05-15T02:32:05;55.37;;;44.50;;
14474;SDS011;7323;50.848;4.334;2023-05-15T02:34:38;55.43;;;43.77;;
14474;SDS011;7323;50.848;4.334;2023-05-15T02:37:38;61.40;;;44.93;;
14474;SDS011;7323;50.848;4.334;2023-05-15T02:40:09;58.53;;;44.90;;
14474;SDS011;7323;50.848;4.334;2023-05-15T02:42:36;61.57;;;47.43;;
14474;SDS011;7323;50.848;4.334;2023-05-15T02:45:02;61.77;;;46.87;;
14474;SDS011;7323;50.848;4.334;2023-05-15T02:47:31;66.10;;;48.13;;
14474;SDS011;7323;50.848;4.334;2023-05-15T02:49:58;66.10;;;46.97;;
14474;SDS011;7323;50.848;4.334;2023-05-15T02:52:25;69.63;;;50.57;;
14474;SDS011;7323;50.848;4.334;2023-05-15T02:54:52;69.20;;;48.33;;
14474;SDS011;7323;50.848;4.334;2023-05-15T02:57:18;74.03;;;50.00;;
14474;SDS011;7323;50.848;4.334;2023-05-15T02:59:43;70.67;;;48.83;;
14474;SDS011;7323;50.848;4.334;2023-05-15T03:02:09;76.63;;;50.73;;
14474;SDS011;7323;50.848;4.334;2023-05-15T03:04:35;80.67;;;51.27;;
14474;SDS011;7323;50.848;4.334;2023-05-15T03:07:01;79.53;;;52.27;;
14474;SDS011;7323;50.848;4.334;2023-05-15T03:09:27;79.60;;;51.93;;
14474;SDS011;7323;50.848;4.334;2023-05-15T03:11:54;85.27;;;53.57;;
14474;SDS011;7323;50.848;4.334;2023-05-15T03:14:20;86.53;;;49.60;;
14474;SDS011;7323;50.848;4.334;2023-05-15T03:16:46;75.77;;;45.63;;
14474;SDS011;7323;50.848;4.334;2023-05-15T03:19:24;87.83;;;48.83;;
14474;SDS011;7323;50.848;4.334;2023-05-15T03:21:51;81.60;;;51.33;;
14474;SDS011;7323;50.848;4.334;2023-05-15T03:24:17;92.93;;;51.33;;
14474;SDS011;7323;50.848;4.334;2023-05-15T03:26:43;89.77;;;49.50;;
14474;SDS011;7323;50.848;4.334;2023-05-15T03:29:09;83.17;;;48.90;;
14474;SDS011;7323;50.848;4.334;2023-05-15T03:31:35;91.97;;;49.67;;
14474;SDS011;7323;50.848;4.334;2023-05-15T03:34:01;99.73;;;50.47;;
14474;SDS011;7323;50.848;4.334;2023-05-15T03:36:26;90.73;;;47.10;;
14474;SDS011;7323;50.848;4.334;2023-05-15T03:38:52;94.90;;;50.77;;
14474;SDS011;7323;50.848;4.334;2023-05-15T03:41:17;103.47;;;48.97;;
14474;SDS011;7323;50.848;4.334;2023-05-15T03:43:43;93.73;;;49.13;;
14474;SDS011;7323;50.848;4.334;2023-05-15T03:46:09;93.00;;;50.07;;
14474;SDS011;7323;50.848;4.334;2023-05-15T03:48:35;97.40;;;46.90;;
14474;SDS011;7323;50.848;4.334;2023-05-15T03:51:02;94.53;;;49.53;;
14474;SDS011;7323;50.848;4.334;2023-05-15T03:53:28;85.27;;;48.53;;
14474;SDS011;7323;50.848;4.334;2023-05-15T03:55:54;80.60;;;48.30;;
14474;SDS011;7323;50.848;4.334;2023-05-15T03:58:20;79.70;;;46.57;;
14474;SDS011;7323;50.848;4.334;2023-05-15T04:00:46;82.70;;;48.27;;
14474;SDS011;7323;50.848;4.334;2023-05-15T04:03:12;75.50;;;46.80;;
14474;SDS011;7323;50.848;4.334;2023-05-15T04:05:43;77.00;;;45.77;;
14474;SDS011;7323;50.848;4.334;2023-05-15T04:11:08;79.57;;;46.90;;
14474;SDS011;7323;50.848;4.334;2023-05-15T04:13:35;72.43;;;44.73;;
14474;SDS011;7323;50.848;4.334;2023-05-15T04:16:01;79.47;;;45.43;;
14474;SDS011;7323;50.848;4.334;2023-05-15T04:18:28;67.07;;;44.20;;
14474;SDS011;7323;50.848;4.334;2023-05-15T04:20:53;69.07;;;45.33;;
14474;SDS011;7323;50.848;4.334;2023-05-15T04:23:19;66.67;;;44.60;;
14474;SDS011;7323;50.848;4.334;2023-05-15T04:25:45;66.33;;;44.43;;
14474;SDS011;7323;50.848;4.334;2023-05-15T04:28:14;71.70;;;46.13;;
14474;SDS011;7323;50.848;4.334;2023-05-15T04:30:40;68.30;;;45.47;;
14474;SDS011;7323;50.848;4.334;2023-05-15T04:33:06;63.93;;;42.03;;
14474;SDS011;7323;50.848;4.334;2023-05-15T04:35:31;59.60;;;41.43;;
14474;SDS011;7323;50.848;4.334;2023-05-15T04:37:57;55.33;;;39.80;;
14474;SDS011;7323;50.848;4.334;2023-05-15T04:40:24;53.87;;;38.33;;
14474;SDS011;7323;50.848;4.334;2023-05-15T04:42:50;54.50;;;38.73;;
14474;SDS011;7323;50.848;4.334;2023-05-15T04:45:16;52.47;;;38.07;;
14474;SDS011;7323;50.848;4.334;2023-05-15T04:47:42;53.07;;;38.93;;
14474;SDS011;7323;50.848;4.334;2023-05-15T04:50:08;51.27;;;37.30;;
14474;SDS011;7323;50.848;4.334;2023-05-15T04:52:35;53.90;;;38.30;;
14474;SDS011;7323;50.848;4.334;2023-05-15T04:55:01;56.43;;;37.87;;
14474;SDS011;7323;50.848;4.334;2023-05-15T04:57:26;57.93;;;38.40;;
14474;SDS011;7323;50.848;4.334;2023-05-15T04:59:52;55.93;;;38.47;;
14474;SDS011;7323;50.848;4.334;2023-05-15T05:02:21;54.30;;;39.03;;
14474;SDS011;7323;50.848;4.334;2023-05-15T05:04:48;56.07;;;38.90;;
14474;SDS011;7323;50.848;4.334;2023-05-15T05:07:20;50.00;;;37.27;;
14474;SDS011;7323;50.848;4.334;2023-05-15T05:09:47;54.70;;;39.30;;
14474;SDS011;7323;50.848;4.334;2023-05-15T05:12:12;51.50;;;38.77;;
14474;SDS011;7323;50.848;4.334;2023-05-15T05:14:39;55.07;;;38.37;;
14474;SDS011;7323;50.848;4.334;2023-05-15T05:17:06;54.97;;;40.50;;
14474;SDS011;7323;50.848;4.334;2023-05-15T05:19:31;57.03;;;39.70;;
14474;SDS011;7323;50.848;4.334;2023-05-15T05:21:58;54.33;;;39.33;;
14474;SDS011;7323;50.848;4.334;2023-05-15T05:24:30;58.27;;;40.73;;
14474;SDS011;7323;50.848;4.334;2023-05-15T05:26:57;54.57;;;39.80;;
14474;SDS011;7323;50.848;4.334;2023-05-15T05:29:24;59.83;;;40.63;;
14474;SDS011;7323;50.848;4.334;2023-05-15T05:31:50;58.60;;;42.07;;
14474;SDS011;7323;50.848;4.334;2023-05-15T05:34:15;59.20;;;41.50;;
14474;SDS011;7323;50.848;4.334;2023-05-15T05:36:41;63.00;;;42.90;;
14474;SDS011;7323;50.848;4.334;2023-05-15T05:39:08;60.33;;;42.80;;
14474;SDS011;7323;50.848;4.334;2023-05-15T05:41:34;62.70;;;43.30;;
14474;SDS011;7323;50.848;4.334;2023-05-15T05:44:00;57.03;;;42.43;;
14474;SDS011;7323;50.848;4.334;2023-05-15T05:46:25;53.00;;;41.73;;
14474;SDS011;7323;50.848;4.334;2023-05-15T05:48:51;56.70;;;42.23;;
14474;SDS011;7323;50.848;4.334;2023-05-15T05:51:18;53.40;;;41.77;;
14474;SDS011;7323;50.848;4.334;2023-05-15T05:53:44;60.33;;;41.80;;
14474;SDS011;7323;50.848;4.334;2023-05-15T05:56:10;53.70;;;41.13;;
14474;SDS011;7323;50.848;4.334;2023-05-15T05:58:35;57.73;;;44.50;;
14474;SDS011;7323;50.848;4.334;2023-05-15T06:01:01;55.27;;;42.50;;
14474;SDS011;7323;50.848;4.334;2023-05-15T06:03:27;50.77;;;37.20;;
14474;SDS011;7323;50.848;4.334;2023-05-15T06:05:53;50.80;;;40.23;;
14474;SDS011;7323;50.848;4.334;2023-05-15T06:08:19;49.17;;;39.60;;
14474;SDS011;7323;50.848;4.334;2023-05-15T06:10:45;51.07;;;41.53;;
14474;SDS011;7323;50.848;4.334;2023-05-15T06:13:11;51.03;;;39.40;;
14474;SDS011;7323;50.848;4.334;2023-05-15T06:15:38;52.30;;;39.83;;
14474;SDS011;7323;50.848;4.334;2023-05-15T06:18:07;48.53;;;40.03;;
14474;SDS011;7323;50.848;4.334;2023-05-15T06:23:02;50.83;;;39.80;;
14474;SDS011;7323;50.848;4.334;2023-05-15T06:25:29;50.27;;;41.20;;
14474;SDS011;7323;50.848;4.334;2023-05-15T06:27:55;50.80;;;39.80;;
14474;SDS011;7323;50.848;4.334;2023-05-15T06:30:21;46.83;;;37.47;;
14474;SDS011;7323;50.848;4.334;2023-05-15T06:32:47;47.77;;;37.83;;
14474;SDS011;7323;50.848;4.334;2023-05-15T06:35:16;46.03;;;36.83;;
14474;SDS011;7323;50.848;4.334;2023-05-15T06:37:43;47.07;;;37.53;;
14474;SDS011;7323;50.848;4.334;2023-05-15T06:40:14;47.30;;;37.80;;
14474;SDS011;7323;50.848;4.334;2023-05-15T06:42:41;46.97;;;37.93;;
14474;SDS011;7323;50.848;4.334;2023-05-15T06:45:09;45.80;;;37.83;;
14474;SDS011;7323;50.848;4.334;2023-05-15T06:47:35;43.80;;;35.83;;
14474;SDS011;7323;50.848;4.334;2023-05-15T06:50:01;45.57;;;36.60;;
14474;SDS011;7323;50.848;4.334;2023-05-15T06:52:28;43.73;;;36.70;;
14474;SDS011;7323;50.848;4.334;2023-05-15T06:54:53;47.53;;;35.80;;
14474;SDS011;7323;50.848;4.334;2023-05-15T06:57:19;42.93;;;36.20;;
14474;SDS011;7323;50.848;4.334;2023-05-15T06:59:45;43.90;;;34.30;;
14474;SDS011;7323;50.848;4.334;2023-05-15T07:02:11;43.13;;;35.83;;
14474;SDS011;7323;50.848;4.334;2023-05-15T07:04:36;42.87;;;34.87;;
14474;SDS011;7323;50.848;4.334;2023-05-15T07:07:18;40.33;;;33.53;;
14474;SDS011;7323;50.848;4.334;2023-05-15T07:15:32;43.93;;;36.23;;
14474;SDS011;7323;50.848;4.334;2023-05-15T07:17:58;45.37;;;36.23;;
14474;SDS011;7323;50.848;4.334;2023-05-15T07:20:24;43.27;;;35.73;;
14474;SDS011;7323;50.848;4.334;2023-05-15T07:22:49;42.90;;;36.03;;
14474;SDS011;7323;50.848;4.334;2023-05-15T07:25:16;45.73;;;35.63;;
14474;SDS011;7323;50.848;4.334;2023-05-15T07:27:42;44.10;;;35.00;;
14474;SDS011;7323;50.848;4.334;2023-05-15T07:30:08;38.43;;;33.37;;
14474;SDS011;7323;50.848;4.334;2023-05-15T07:32:35;41.07;;;34.20;;
14474;SDS011;7323;50.848;4.334;2023-05-15T07:35:00;41.20;;;34.83;;
14474;SDS011;7323;50.848;4.334;2023-05-15T07:37:28;41.30;;;33.97;;
14474;SDS011;7323;50.848;4.334;2023-05-15T07:39:54;42.57;;;36.13;;
14474;SDS011;7323;50.848;4.334;2023-05-15T07:42:21;40.53;;;34.07;;
14474;SDS011;7323;50.848;4.334;2023-05-15T07:44:47;40.47;;;34.53;;
14474;SDS011;7323;50.848;4.334;2023-05-15T07:47:14;41.07;;;34.87;;
14474;SDS011;7323;50.848;4.334;2023-05-15T07:49:40;39.07;;;34.57;;
14474;SDS011;7323;50.848;4.334;2023-05-15T07:52:05;37.40;;;32.43;;
14474;SDS011;7323;50.848;4.334;2023-05-15T07:54:31;36.60;;;32.40;;
14474;SDS011;7323;50.848;4.334;2023-05-15T07:56:57;37.70;;;33.03;;
14474;SDS011;7323;50.848;4.334;2023-05-15T07:59:23;39.53;;;33.27;;
14474;SDS011;7323;50.848;4.334;2023-05-15T08:01:48;41.90;;;35.47;;
14474;SDS011;7323;50.848;4.334;2023-05-15T08:04:15;43.60;;;34.47;;
14474;SDS011;7323;50.848;4.334;2023-05-15T08:06:43;39.80;;;34.03;;
14474;SDS011;7323;50.848;4.334;2023-05-15T08:09:08;40.47;;;33.40;;
14474;SDS011;7323;50.848;4.334;2023-05-15T08:11:35;39.70;;;33.67;;
14474;SDS011;7323;50.848;4.334;2023-05-15T08:16:33;38.10;;;33.27;;
14474;SDS011;7323;50.848;4.334;2023-05-15T08:21:50;41.73;;;35.27;;
14474;SDS011;7323;50.848;4.334;2023-05-15T08:24:15;40.87;;;34.50;;
14474;SDS011;7323;50.848;4.334;2023-05-15T08:26:41;39.93;;;34.60;;
14474;SDS011;7323;50.848;4.334;2023-05-15T08:29:08;40.70;;;33.90;;
14474;SDS011;7323;50.848;4.334;2023-05-15T08:31:36;38.33;;;33.10;;
14474;SDS011;7323;50.848;4.334;2023-05-15T08:34:02;43.77;;;35.30;;
14474;SDS011;7323;50.848;4.334;2023-05-15T08:36:33;46.87;;;37.13;;
14474;SDS011;7323;50.848;4.334;2023-05-15T08:39:00;44.97;;;36.60;;
14474;SDS011;7323;50.848;4.334;2023-05-15T08:41:32;41.80;;;35.80;;
14474;SDS011;7323;50.848;4.334;2023-05-15T08:44:07;42.83;;;35.40;;
14474;SDS011;7323;50.848;4.334;2023-05-15T08:46:34;42.67;;;35.77;;
14474;SDS011;7323;50.848;4.334;2023-05-15T08:49:02;46.93;;;37.30;;
14474;SDS011;7323;50.848;4.334;2023-05-15T08:51:37;41.53;;;35.43;;
14474;SDS011;7323;50.848;4.334;2023-05-15T08:54:03;45.77;;;36.93;;
14474;SDS011;7323;50.848;4.334;2023-05-15T08:56:29;42.83;;;36.33;;
14474;SDS011;7323;50.848;4.334;2023-05-15T08:58:55;42.37;;;36.43;;
14474;SDS011;7323;50.848;4.334;2023-05-15T09:01:21;43.33;;;36.57;;
14474;SDS011;7323;50.848;4.334;2023-05-15T09:03:48;43.60;;;36.67;;
14474;SDS011;7323;50.848;4.334;2023-05-15T09:06:13;43.53;;;37.60;;
14474;SDS011;7323;50.848;4.334;2023-05-15T09:08:39;40.83;;;35.80;;
14474;SDS011;7323;50.848;4.334;2023-05-15T09:11:06;42.77;;;36.60;;
14474;SDS011;7323;50.848;4.334;2023-05-15T09:13:32;41.13;;;35.70;;
14474;SDS011;7323;50.848;4.334;2023-05-15T09:15:59;41.60;;;36.03;;
14474;SDS011;7323;50.848;4.334;2023-05-15T09:18:25;41.43;;;33.87;;
14474;SDS011;7323;50.848;4.334;2023-05-15T09:24:22;42.07;;;33.73;;
14474;SDS011;7323;50.848;4.334;2023-05-15T09:27:05;39.63;;;33.07;;
14474;SDS011;7323;50.848;4.334;2023-05-15T09:29:33;38.77;;;31.67;;
14474;SDS011;7323;50.848;4.334;2023-05-15T09:32:08;39.57;;;31.10;;
14474;SDS011;7323;50.848;4.334;2023-05-15T09:34:36;39.60;;;30.27;;
14474;SDS011;7323;50.848;4.334;2023-05-15T09:37:06;39.23;;;30.90;;
14474;SDS011;7323;50.848;4.334;2023-05-15T09:39:51;39.07;;;30.90;;
14474;SDS011;7323;50.848;4.334;2023-05-15T09:42:19;36.50;;;28.70;;
14474;SDS011;7323;50.848;4.334;2023-05-15T09:44:49;37.97;;;28.80;;
14474;SDS011;7323;50.848;4.334;2023-05-15T09:47:15;37.67;;;30.40;;
14474;SDS011;7323;50.848;4.334;2023-05-15T09:49:44;33.63;;;28.47;;
14474;SDS011;7323;50.848;4.334;2023-05-15T09:52:11;37.20;;;29.53;;
14474;SDS011;7323;50.848;4.334;2023-05-15T09:54:39;35.63;;;29.17;;
14474;SDS011;7323;50.848;4.334;2023-05-15T09:57:10;38.20;;;29.23;;
14474;SDS011;7323;50.848;4.334;2023-05-15T09:59:44;36.87;;;29.20;;
14474;SDS011;7323;50.848;4.334;2023-05-15T10:02:22;39.90;;;30.30;;
14474;SDS011;7323;50.848;4.334;2023-05-15T10:04:53;41.23;;;30.83;;
14474;SDS011;7323;50.848;4.334;2023-05-15T10:07:30;41.10;;;30.87;;
14474;SDS011;7323;50.848;4.334;2023-05-15T10:09:57;37.80;;;29.30;;
14474;SDS011;7323;50.848;4.334;2023-05-15T10:12:23;37.77;;;29.10;;
14474;SDS011;7323;50.848;4.334;2023-05-15T10:14:50;39.60;;;29.63;;
14474;SDS011;7323;50.848;4.334;2023-05-15T10:17:19;38.70;;;29.27;;
14474;SDS011;7323;50.848;4.334;2023-05-15T10:19:47;39.70;;;28.57;;
14474;SDS011;7323;50.848;4.334;2023-05-15T10:27:53;40.50;;;30.27;;
14474;SDS011;7323;50.848;4.334;2023-05-15T10:30:27;38.63;;;28.87;;
14474;SDS011;7323;50.848;4.334;2023-05-15T10:32:53;40.77;;;29.47;;
14474;SDS011;7323;50.848;4.334;2023-05-15T10:35:20;40.30;;;30.00;;
14474;SDS011;7323;50.848;4.334;2023-05-15T10:37:47;40.43;;;29.40;;
14474;SDS011;7323;50.848;4.334;2023-05-15T10:40:14;41.33;;;30.83;;
14474;SDS011;7323;50.848;4.334;2023-05-15T10:42:44;43.47;;;31.20;;
14474;SDS011;7323;50.848;4.334;2023-05-15T10:45:11;39.30;;;29.30;;
14474;SDS011;7323;50.848;4.334;2023-05-15T10:47:39;42.47;;;31.67;;
14474;SDS011;7323;50.848;4.334;2023-05-15T10:50:07;43.70;;;30.60;;
14474;SDS011;7323;50.848;4.334;2023-05-15T10:52:35;44.10;;;30.23;;
14474;SDS011;7323;50.848;4.334;2023-05-15T10:55:04;45.73;;;30.50;;
14474;SDS011;7323;50.848;4.334;2023-05-15T10:57:32;46.47;;;32.03;;
14474;SDS011;7323;50.848;4.334;2023-05-15T11:00:00;44.20;;;31.87;;
14474;SDS011;7323;50.848;4.334;2023-05-15T11:02:27;44.97;;;30.87;;
14474;SDS011;7323;50.848;4.334;2023-05-15T11:04:55;43.87;;;31.27;;
14474;SDS011;7323;50.848;4.334;2023-05-15T11:07:22;46.73;;;32.47;;
14474;SDS011;7323;50.848;4.334;2023-05-15T11:09:51;48.70;;;33.00;;
14474;SDS011;7323;50.848;4.334;2023-05-15T11:12:19;49.37;;;33.67;;
14474;SDS011;7323;50.848;4.334;2023-05-15T11:17:21;51.67;;;35.13;;
14474;SDS011;7323;50.848;4.334;2023-05-15T11:22:20;51.97;;;34.30;;
14474;SDS011;7323;50.848;4.334;2023-05-15T11:25:04;51.67;;;35.00;;
14474;SDS011;7323;50.848;4.334;2023-05-15T11:30:37;50.73;;;33.40;;
14474;SDS011;7323;50.848;4.334;2023-05-15T11:33:09;53.57;;;35.37;;
14474;SDS011;7323;50.848;4.334;2023-05-15T11:35:39;53.13;;;35.70;;
14474;SDS011;7323;50.848;4.334;2023-05-15T11:38:16;57.73;;;37.30;;
14474;SDS011;7323;50.848;4.334;2023-05-15T11:49:48;73.10;;;45.70;;
14474;SDS011;7323;50.848;4.334;2023-05-15T11:52:14;83.17;;;48.60;;
14474;SDS011;7323;50.848;4.334;2023-05-15T11:54:43;68.97;;;45.90;;
14474;SDS011;7323;50.848;4.334;2023-05-15T11:57:10;68.30;;;44.87;;
14474;SDS011;7323;50.848;4.334;2023-05-15T12:02:05;70.23;;;43.93;;
14474;SDS011;7323;50.848;4.334;2023-05-15T12:04:32;66.93;;;45.07;;
14474;SDS011;7323;50.848;4.334;2023-05-15T12:06:59;72.70;;;44.63;;
14474;SDS011;7323;50.848;4.334;2023-05-15T12:09:28;61.20;;;41.60;;
14474;SDS011;7323;50.848;4.334;2023-05-15T12:11:54;57.63;;;41.30;;
14474;SDS011;7323;50.848;4.334;2023-05-15T12:14:26;66.50;;;42.27;;
14474;SDS011;7323;50.848;4.334;2023-05-15T12:16:58;61.40;;;40.83;;
14474;SDS011;7323;50.848;4.334;2023-05-15T12:19:28;63.30;;;40.10;;
14474;SDS011;7323;50.848;4.334;2023-05-15T12:22:07;68.43;;;42.00;;
14474;SDS011;7323;50.848;4.334;2023-05-15T12:24:36;68.77;;;42.37;;
14474;SDS011;7323;50.848;4.334;2023-05-15T12:27:03;69.87;;;45.27;;
14474;SDS011;7323;50.848;4.334;2023-05-15T12:29:30;65.60;;;42.03;;
14474;SDS011;7323;50.848;4.334;2023-05-15T12:31:56;63.20;;;40.10;;
14474;SDS011;7323;50.848;4.334;2023-05-15T12:34:21;49.77;;;35.67;;
14474;SDS011;7323;50.848;4.334;2023-05-15T12:36:50;52.70;;;35.10;;
14474;SDS011;7323;50.848;4.334;2023-05-15T12:39:16;48.37;;;34.17;;
14474;SDS011;7323;50.848;4.334;2023-05-15T12:44:20;51.93;;;36.50;;
14474;SDS011;7323;50.848;4.334;2023-05-15T12:46:46;46.87;;;30.80;;
14474;SDS011;7323;50.848;4.334;2023-05-15T12:49:21;45.43;;;29.97;;
14474;SDS011;7323;50.848;4.334;2023-05-15T12:51:46;40.77;;;27.57;;
14474;SDS011;7323;50.848;4.334;2023-05-15T12:54:16;40.70;;;27.23;;
14474;SDS011;7323;50.848;4.334;2023-05-15T12:56:43;35.50;;;24.20;;
14474;SDS011;7323;50.848;4.334;2023-05-15T12:59:09;32.50;;;22.17;;
14474;SDS011;7323;50.848;4.334;2023-05-15T13:01:37;34.77;;;23.60;;
14474;SDS011;7323;50.848;4.334;2023-05-15T13:04:06;29.13;;;21.47;;
14474;SDS011;7323;50.848;4.334;2023-05-15T13:06:31;25.10;;;16.53;;
14474;SDS011;7323;50.848;4.334;2023-05-15T13:08:58;19.43;;;12.83;;
14474;SDS011;7323;50.848;4.334;2023-05-15T13:11:28;15.27;;;10.47;;
14474;SDS011;7323;50.848;4.334;2023-05-15T13:13:55;10.43;;;7.53;;
14474;SDS011;7323;50.848;4.334;2023-05-15T13:16:24;8.70;;;6.10;;
14474;SDS011;7323;50.848;4.334;2023-05-15T13:18:54;9.33;;;5.43;;
14474;SDS011;7323;50.848;4.334;2023-05-15T13:21:22;6.43;;;4.20;;
14474;SDS011;7323;50.848;4.334;2023-05-15T13:23:47;6.37;;;3.97;;
14474;SDS011;7323;50.848;4.334;2023-05-15T13:26:23;4.47;;;3.20;;
14474;SDS011;7323;50.848;4.334;2023-05-15T13:28:48;3.93;;;2.57;;
14474;SDS011;7323;50.848;4.334;2023-05-15T13:31:14;5.33;;;2.80;;
14474;SDS011;7323;50.848;4.334;2023-05-15T13:37:03;4.67;;;2.67;;
14474;SDS011;7323;50.848;4.334;2023-05-15T13:39:29;3.63;;;2.20;;
14474;SDS011;7323;50.848;4.334;2023-05-15T13:41:56;5.03;;;2.10;;
14474;SDS011;7323;50.848;4.334;2023-05-15T13:44:25;5.30;;;2.60;;
14474;SDS011;7323;50.848;4.334;2023-05-15T13:46:50;4.93;;;2.70;;
14474;SDS011;7323;50.848;4.334;2023-05-15T13:49:22;5.40;;;2.30;;
14474;SDS011;7323;50.848;4.334;2023-05-15T13:51:50;3.50;;;2.57;;
14474;SDS011;7323;50.848;4.334;2023-05-15T13:54:18;6.13;;;2.50;;
14474;SDS011;7323;50.848;4.334;2023-05-15T13:56:46;8.73;;;3.40;;
14474;SDS011;7323;50.848;4.334;2023-05-15T13:59:12;5.20;;;2.70;;
14474;SDS011;7323;50.848;4.334;2023-05-15T14:01:38;5.00;;;3.07;;
14474;SDS011;7323;50.848;4.334;2023-05-15T14:04:03;5.00;;;2.53;;
14474;SDS011;7323;50.848;4.334;2023-05-15T14:06:29;8.23;;;3.90;;
14474;SDS011;7323;50.848;4.334;2023-05-15T14:08:56;5.97;;;3.73;;
14474;SDS011;7323;50.848;4.334;2023-05-15T14:11:22;6.67;;;3.90;;
14474;SDS011;7323;50.848;4.334;2023-05-15T14:13:47;6.67;;;3.67;;
14474;SDS011;7323;50.848;4.334;2023-05-15T14:16:13;8.50;;;4.40;;
14474;SDS011;7323;50.848;4.334;2023-05-15T14:18:39;7.07;;;3.90;;
14474;SDS011;7323;50.848;4.334;2023-05-15T14:21:04;10.63;;;4.30;;
14474;SDS011;7323;50.848;4.334;2023-05-15T14:23:30;11.27;;;4.40;;
14474;SDS011;7323;50.848;4.334;2023-05-15T14:25:57;8.83;;;3.67;;
14474;SDS011;7323;50.848;4.334;2023-05-15T14:28:24;9.97;;;4.10;;
14474;SDS011;7323;50.848;4.334;2023-05-15T14:30:50;8.67;;;4.17;;
14474;SDS011;7323;50.848;4.334;2023-05-15T14:33:19;7.43;;;3.80;;
14474;SDS011;7323;50.848;4.334;2023-05-15T14:35:46;8.30;;;3.50;;
14474;SDS011;7323;50.848;4.334;2023-05-15T14:38:13;7.80;;;3.77;;
14474;SDS011;7323;50.848;4.334;2023-05-15T14:40:41;5.07;;;3.03;;
14474;SDS011;7323;50.848;4.334;2023-05-15T14:43:08;7.63;;;3.10;;
14474;SDS011;7323;50.848;4.334;2023-05-15T14:45:35;5.10;;;3.10;;
14474;SDS011;7323;50.848;4.334;2023-05-15T14:55:57;7.00;;;3.37;;
14474;SDS011;7323;50.848;4.334;2023-05-15T14:58:23;7.40;;;3.50;;
14474;SDS011;7323;50.848;4.334;2023-05-15T15:00:49;7.80;;;3.27;;
14474;SDS011;7323;50.848;4.334;2023-05-15T15:03:16;7.33;;;3.90;;
14474;SDS011;7323;50.848;4.334;2023-05-15T15:05:43;8.60;;;3.77;;
14474;SDS011;7323;50.848;4.334;2023-05-15T15:08:10;8.53;;;4.30;;
14474;SDS011;7323;50.848;4.334;2023-05-15T15:10:38;8.43;;;4.60;;
14474;SDS011;7323;50.848;4.334;2023-05-15T15:13:05;7.40;;;4.10;;
14474;SDS011;7323;50.848;4.334;2023-05-15T15:15:33;9.10;;;4.10;;
14474;SDS011;7323;50.848;4.334;2023-05-15T15:17:59;12.37;;;4.57;;
14474;SDS011;7323;50.848;4.334;2023-05-15T15:20:25;9.87;;;4.40;;
14474;SDS011;7323;50.848;4.334;2023-05-15T15:22:55;6.43;;;4.40;;
14474;SDS011;7323;50.848;4.334;2023-05-15T15:25:21;8.67;;;4.17;;
14474;SDS011;7323;50.848;4.334;2023-05-15T15:27:48;9.70;;;4.90;;
14474;SDS011;7323;50.848;4.334;2023-05-15T15:30:14;6.90;;;4.37;;
14474;SDS011;7323;50.848;4.334;2023-05-15T15:32:40;9.60;;;3.93;;
14474;SDS011;7323;50.848;4.334;2023-05-15T15:35:08;12.13;;;4.80;;
14474;SDS011;7323;50.848;4.334;2023-05-15T15:37:34;9.27;;;5.13;;
14474;SDS011;7323;50.848;4.334;2023-05-15T15:45:25;9.63;;;4.97;;
14474;SDS011;7323;50.848;4.334;2023-05-15T15:48:09;9.27;;;4.90;;
14474;SDS011;7323;50.848;4.334;2023-05-15T15:50:36;8.63;;;4.73;;
14474;SDS011;7323;50.848;4.334;2023-05-15T15:53:05;8.17;;;4.80;;
14474;SDS011;7323;50.848;4.334;2023-05-15T15:58:28;12.13;;;5.67;;
14474;SDS011;7323;50.848;4.334;2023-05-15T16:00:54;12.90;;;5.87;;
14474;SDS011;7323;50.848;4.334;2023-05-15T16:03:21;13.03;;;5.97;;